Welcome to Northern Hawkes Bay. New Zealand.
PWS Header
      nz Flag



Hit Counter


W3C Valid W3C Valid logo


    Wairoa

Select any of the Stations below to visit their websites.










Historic Data from Weather Underground
Select the location of interest below. Wairoa is the default. Please have patience, this Data is slow to load in.
Northern Hawkes Bay Historical Data
Daily Summary for May 2, 2017 Units:  Metric    English   Both
« Previous Day
Next Day »
Daily Weekly Monthly Yearly Custom
  High: Low: Average:
Temperature: 19.4 °C 7.1 °C 12 °C
Dew Point: 8.9 °C 5.8 °C 7.5 °C
Humidity: 97% 45% 76%
Wind Speed: 29.4km/h 0.0km/h 6.2km/h
Wind Gust: 41.7km/h - -
Wind- - West
Pressure: 1022.6 hPa 1018.2 hPa -
Precipitation: 0.0 mm    
Historical Graphs
 
 
Tabular Data for May 2, 2017
Time Temperature Dew Point Pressure Wind Wind Speed Wind Gust Humidity Rainfall Rate (Hourly) solar
00:02 10.8 °C 8.2 °C 1018.2 hPa SW 21.9 km/h 37.8 km/h 84% 0.0 mm 0 W/m2
00:07 10.7 °C 8.1 °C 1018.2 hPa SW 17.2 km/h 37.8 km/h 84% 0.0 mm 0 W/m2
00:12 10.7 °C 8.1 °C 1018.2 hPa WSW 21.9 km/h 39.3 km/h 84% 0.0 mm 0 W/m2
00:17 10.7 °C 7.9 °C 1018.5 hPa West 14.8 km/h 39.3 km/h 83% 0.0 mm 0 W/m2
00:22 10.6 °C 7.8 °C 1018.5 hPa WSW 17.2 km/h 31.7 km/h 83% 0.0 mm 0 W/m2
00:27 10.7 °C 7.9 °C 1018.5 hPa SW 17.2 km/h 37.8 km/h 83% 0.0 mm 0 W/m2
00:32 10.7 °C 7.9 °C 1018.5 hPa SW 14.8 km/h 37.8 km/h 83% 0.0 mm 0 W/m2
00:37 10.6 °C 8.0 °C 1018.5 hPa SW 21.9 km/h 30.6 km/h 84% 0.0 mm 0 W/m2
00:42 10.7 °C 7.9 °C 1018.8 hPa SW 19.5 km/h 31.7 km/h 83% 0.0 mm 0 W/m2
00:47 10.7 °C 7.9 °C 1018.5 hPa WSW 19.5 km/h 34.3 km/h 83% 0.0 mm 0 W/m2
00:52 10.7 °C 7.9 °C 1018.8 hPa WSW 20.9 km/h 35.6 km/h 83% 0.0 mm 0 W/m2
00:57 10.8 °C 7.8 °C 1018.8 hPa WSW 19.5 km/h 39.3 km/h 82% 0.0 mm 0 W/m2
01:02 10.9 °C 7.9 °C 1018.8 hPa WSW 13.4 km/h 39.3 km/h 82% 0.0 mm 0 W/m2
01:07 11.0 °C 7.9 °C 1018.8 hPa SW 18.3 km/h 35.6 km/h 81% 0.0 mm 0 W/m2
01:12 10.9 °C 8.1 °C 1018.8 hPa SW 13.4 km/h 35.6 km/h 83% 0.0 mm 0 W/m2
01:17 10.9 °C 8.1 °C 1018.8 hPa SW 18.3 km/h 35.6 km/h 83% 0.0 mm 0 W/m2
01:22 11.0 °C 8.1 °C 1018.8 hPa SW 19.5 km/h 35.6 km/h 82% 0.0 mm 0 W/m2
01:27 11.0 °C 7.9 °C 1018.8 hPa WSW 23.3 km/h 35.6 km/h 81% 0.0 mm 0 W/m2
01:32 11.0 °C 7.9 °C 1018.8 hPa SW 20.9 km/h 35.6 km/h 81% 0.0 mm 0 W/m2
01:37 10.9 °C 8.1 °C 1018.8 hPa SW 17.2 km/h 34.3 km/h 83% 0.0 mm 0 W/m2
01:42 11.0 °C 8.1 °C 1018.8 hPa SW 20.9 km/h 36.7 km/h 82% 0.0 mm 0 W/m2
01:47 11.0 °C 8.1 °C 1018.8 hPa SW 23.3 km/h 37.8 km/h 82% 0.0 mm 0 W/m2
01:52 10.9 °C 7.9 °C 1018.8 hPa WSW 29.4 km/h 37.8 km/h 82% 0.0 mm 0 W/m2
01:57 10.9 °C 7.9 °C 1018.8 hPa WSW 21.9 km/h 41.7 km/h 82% 0.0 mm 0 W/m2
02:02 10.9 °C 7.8 °C 1018.8 hPa WSW 19.5 km/h 41.7 km/h 81% 0.0 mm 0 W/m2
02:07 11.0 °C 7.9 °C 1019.2 hPa WSW 23.3 km/h 35.6 km/h 81% 0.0 mm 0 W/m2
02:12 11.0 °C 7.9 °C 1018.8 hPa SW 20.9 km/h 36.7 km/h 81% 0.0 mm 0 W/m2
02:17 11.0 °C 7.9 °C 1018.8 hPa SW 17.2 km/h 36.7 km/h 81% 0.0 mm 0 W/m2
02:22 11.0 °C 8.1 °C 1018.8 hPa WSW 17.2 km/h 34.3 km/h 82% 0.0 mm 0 W/m2
02:27 11.0 °C 8.1 °C 1018.8 hPa SW 12.2 km/h 34.3 km/h 82% 0.0 mm 0 W/m2
02:32 11.0 °C 8.1 °C 1018.8 hPa SW 14.8 km/h 31.7 km/h 82% 0.0 mm 0 W/m2
02:37 11.0 °C 8.1 °C 1018.8 hPa WSW 25.6 km/h 33.1 km/h 82% 0.0 mm 0 W/m2
02:42 11.0 °C 7.7 °C 1018.8 hPa SW 21.9 km/h 39.3 km/h 80% 0.0 mm 0 W/m2
02:47 10.9 °C 7.8 °C 1018.8 hPa SW 15.8 km/h 39.3 km/h 81% 0.0 mm 0 W/m2
02:52 10.9 °C 7.6 °C 1018.8 hPa WSW 18.3 km/h 33.1 km/h 80% 0.0 mm 0 W/m2
02:57 10.9 °C 7.8 °C 1018.8 hPa WSW 23.3 km/h 36.7 km/h 81% 0.0 mm 0 W/m2
03:02 10.9 °C 7.6 °C 1018.8 hPa WSW 25.6 km/h 39.3 km/h 80% 0.0 mm 0 W/m2
03:12 10.9 °C 7.6 °C 1019.2 hPa SW 18.3 km/h 39.3 km/h 80% 0.0 mm 0 W/m2
03:17 11.0 °C 7.7 °C 1018.8 hPa SW 13.4 km/h 33.1 km/h 80% 0.0 mm 0 W/m2
03:22 10.9 °C 8.1 °C 1019.2 hPa SW 20.9 km/h 33.1 km/h 83% 0.0 mm 0 W/m2
03:27 11.0 °C 8.1 °C 1019.2 hPa SW 15.8 km/h 33.1 km/h 82% 0.0 mm 0 W/m2
03:32 10.9 °C 7.9 °C 1018.8 hPa SW 17.2 km/h 33.1 km/h 82% 0.0 mm 0 W/m2
03:37 10.9 °C 8.1 °C 1019.2 hPa WSW 23.3 km/h 33.1 km/h 83% 0.0 mm 0 W/m2
03:42 10.9 °C 8.1 °C 1019.2 hPa WSW 19.5 km/h 31.7 km/h 83% 0.0 mm 0 W/m2
03:47 11.0 °C 8.1 °C 1018.8 hPa SW 18.3 km/h 33.1 km/h 82% 0.0 mm 0 W/m2
03:52 11.1 °C 8.2 °C 1019.2 hPa SW 15.8 km/h 35.6 km/h 82% 0.0 mm 0 W/m2
03:57 11.0 °C 8.1 °C 1018.8 hPa SW 23.3 km/h 35.6 km/h 82% 0.0 mm 0 W/m2
04:02 11.0 °C 8.1 °C 1018.8 hPa WSW 14.8 km/h 30.6 km/h 82% 0.0 mm 0 W/m2
04:07 11.0 °C 8.1 °C 1019.2 hPa SW 24.5 km/h 31.7 km/h 82% 0.0 mm 0 W/m2
04:12 11.2 °C 7.9 °C 1018.8 hPa SW 18.3 km/h 39.3 km/h 80% 0.0 mm 0 W/m2
04:17 11.2 °C 7.9 °C 1019.2 hPa WSW 28.0 km/h 39.3 km/h 80% 0.0 mm 0 W/m2
04:22 11.2 °C 7.5 °C 1019.2 hPa SW 18.3 km/h 37.8 km/h 78% 0.0 mm 0 W/m2
04:27 11.2 °C 7.5 °C 1019.2 hPa SW 20.9 km/h 37.8 km/h 78% 0.0 mm 0 W/m2
04:32 11.1 °C 7.6 °C 1019.2 hPa SW 19.5 km/h 33.1 km/h 79% 0.0 mm 0 W/m2
04:37 11.1 °C 7.9 °C 1019.2 hPa SW 20.9 km/h 33.1 km/h 81% 0.0 mm 0 W/m2
04:42 11.1 °C 7.8 °C 1019.5 hPa WSW 21.9 km/h 31.7 km/h 80% 0.0 mm 0 W/m2
04:47 11.2 °C 7.7 °C 1019.2 hPa WSW 19.5 km/h 34.3 km/h 79% 0.0 mm 0 W/m2
04:52 11.2 °C 7.7 °C 1019.5 hPa WSW 17.2 km/h 34.3 km/h 79% 0.0 mm 0 W/m2
04:57 11.2 °C 7.7 °C 1019.2 hPa WSW 14.8 km/h 29.4 km/h 79% 0.0 mm 0 W/m2
05:02 11.2 °C 7.7 °C 1019.5 hPa SW 17.2 km/h 28.0 km/h 79% 0.0 mm 0 W/m2
05:07 11.2 °C 7.7 °C 1019.5 hPa SW 19.5 km/h 29.4 km/h 79% 0.0 mm 0 W/m2
05:12 11.2 °C 7.7 °C 1019.9 hPa SW 13.4 km/h 29.4 km/h 79% 0.0 mm 0 W/m2
05:17 11.2 °C 7.9 °C 1019.9 hPa SW 17.2 km/h 29.4 km/h 80% 0.0 mm 0 W/m2
05:22 11.2 °C 7.9 °C 1019.9 hPa SW 9.7 km/h 27.0 km/h 80% 0.0 mm 0 W/m2
05:27 11.2 °C 7.7 °C 1019.9 hPa SW 15.8 km/h 27.0 km/h 79% 0.0 mm 0 W/m2
05:32 11.2 °C 7.5 °C 1019.9 hPa SW 17.2 km/h 25.6 km/h 78% 0.0 mm 0 W/m2
05:37 11.2 °C 7.7 °C 1020.2 hPa WSW 14.8 km/h 25.6 km/h 79% 0.0 mm 0 W/m2
05:42 11.1 °C 7.6 °C 1020.2 hPa WSW 14.8 km/h 29.4 km/h 79% 0.0 mm 0 W/m2
05:47 11.1 °C 7.8 °C 1020.2 hPa WSW 13.4 km/h 29.4 km/h 80% 0.0 mm 0 W/m2
05:52 11.1 °C 7.8 °C 1020.2 hPa WSW 20.9 km/h 27.0 km/h 80% 0.0 mm 0 W/m2
05:57 11.1 °C 7.6 °C 1020.5 hPa WSW 13.4 km/h 28.0 km/h 79% 0.0 mm 0 W/m2
06:02 11.0 °C 7.3 °C 1020.2 hPa WSW 17.2 km/h 28.0 km/h 78% 0.0 mm 0 W/m2
06:07 11.0 °C 7.1 °C 1020.5 hPa WSW 20.9 km/h 28.0 km/h 77% 0.0 mm 0 W/m2
06:12 10.9 °C 7.4 °C 1020.5 hPa WSW 12.2 km/h 28.0 km/h 79% 0.0 mm 0 W/m2
06:17 10.9 °C 7.4 °C 1020.5 hPa WSW 14.8 km/h 27.0 km/h 79% 0.0 mm 0 W/m2
06:22 10.9 °C 7.4 °C 1020.5 hPa SW 13.4 km/h 25.6 km/h 79% 0.0 mm 0 W/m2
06:27 10.9 °C 7.4 °C 1020.5 hPa WSW 15.8 km/h 28.0 km/h 79% 0.0 mm 0 W/m2
06:32 10.8 °C 7.7 °C 1020.5 hPa WSW 14.8 km/h 28.0 km/h 81% 0.0 mm 0 W/m2
06:37 10.7 °C 7.6 °C 1020.5 hPa WSW 13.4 km/h 25.6 km/h 81% 0.0 mm 0 W/m2
06:42 10.6 °C 7.5 °C 1020.5 hPa West 8.7 km/h 25.6 km/h 81% 0.0 mm 0 W/m2
06:47 10.7 °C 7.2 °C 1020.9 hPa WSW 9.7 km/h 21.9 km/h 79% 0.0 mm 0 W/m2
06:52 10.9 °C 7.1 °C 1020.9 hPa West 15.8 km/h 28.0 km/h 77% 0.0 mm 0 W/m2
06:57 11.0 °C 6.9 °C 1020.9 hPa WSW 12.2 km/h 28.0 km/h 76% 0.0 mm 0 W/m2
07:02 11.0 °C 6.9 °C 1020.9 hPa WSW 8.7 km/h 25.6 km/h 76% 0.0 mm 1 W/m2
07:07 10.9 °C 7.1 °C 1020.9 hPa WSW 3.5 km/h 24.5 km/h 77% 0.0 mm 1 W/m2
07:12 10.7 °C 6.8 °C 1020.9 hPa WNW 2.6 km/h 12.2 km/h 77% 0.0 mm 4 W/m2
07:17 10.6 °C 6.7 °C 1020.9 hPa Calm   8.7 km/h 77% 0.0 mm 6 W/m2
07:22 10.4 °C 6.7 °C 1020.9 hPa West 1.1 km/h 8.7 km/h 78% 0.0 mm 8 W/m2
07:27 10.4 °C 6.7 °C 1021.2 hPa Calm   8.7 km/h 78% 0.0 mm 11 W/m2
07:32 10.4 °C 6.7 °C 1021.2 hPa Calm   8.7 km/h 78% 0.0 mm 11 W/m2
07:37 10.4 °C 6.7 °C 1021.2 hPa Calm   9.7 km/h 78% 0.0 mm 14 W/m2
07:42 10.5 °C 6.8 °C 1021.2 hPa Calm   9.7 km/h 78% 0.0 mm 14 W/m2
07:47 10.5 °C 6.8 °C 1021.6 hPa West 2.6 km/h 11.1 km/h 78% 0.0 mm 15 W/m2
07:52 10.5 °C 6.7 °C 1021.6 hPa West 2.6 km/h 11.1 km/h 77% 0.0 mm 18 W/m2
07:57 10.6 °C 6.7 °C 1021.6 hPa WNW 1.1 km/h 7.2 km/h 77% 0.0 mm 19 W/m2
08:02 10.7 °C 6.7 °C 1021.6 hPa Calm   6.1 km/h 76% 0.0 mm 20 W/m2
08:07 10.7 °C 6.7 °C 1021.6 hPa Calm   6.1 km/h 76% 0.0 mm 25 W/m2
08:12 10.8 °C 6.7 °C 1021.6 hPa WNW 2.6 km/h 6.1 km/h 76% 0.0 mm 29 W/m2
08:17 10.8 °C 6.7 °C 1021.6 hPa Calm   5.0 km/h 76% 0.0 mm 36 W/m2
08:22 10.8 °C 6.7 °C 1021.6 hPa NW 5.0 km/h 6.1 km/h 76% 0.0 mm 30 W/m2
08:27 10.6 °C 6.7 °C 1021.9 hPa Calm   7.2 km/h 77% 0.0 mm 25 W/m2
08:32 10.2 °C 6.7 °C 1021.9 hPa NNW 5.0 km/h 7.2 km/h 79% 0.0 mm 29 W/m2
08:37 10.0 °C 6.7 °C 1021.9 hPa Calm   7.2 km/h 80% 0.0 mm 46 W/m2
08:42 10.0 °C 6.9 °C 1021.9 hPa NNW 6.1 km/h 11.1 km/h 81% 0.0 mm 64 W/m2
08:47 10.0 °C 7.1 °C 1021.9 hPa North 1.1 km/h 11.1 km/h 82% 0.0 mm 67 W/m2
08:52 10.1 °C 7.3 °C 1021.9 hPa North 2.6 km/h 11.1 km/h 83% 0.0 mm 73 W/m2
08:57 10.2 °C 7.3 °C 1022.2 hPa North 3.5 km/h 11.1 km/h 82% 0.0 mm 92 W/m2
09:02 10.4 °C 7.3 °C 1022.2 hPa North 5.0 km/h 9.7 km/h 81% 0.0 mm 116 W/m2
09:07 10.6 °C 7.3 °C 1021.9 hPa Calm   9.7 km/h 80% 0.0 mm 168 W/m2
09:12 10.9 °C 7.2 °C 1021.9 hPa Calm   7.2 km/h 78% 0.0 mm 330 W/m2
09:17 11.4 °C 7.1 °C 1021.6 hPa NNW 5.0 km/h 11.1 km/h 75% 0.0 mm 114 W/m2
09:22 12.0 °C 7.5 °C 1021.9 hPa NNW 5.0 km/h 11.1 km/h 74% 0.0 mm 157 W/m2
09:27 11.9 °C 7.2 °C 1021.9 hPa NW 5.0 km/h 11.1 km/h 73% 0.0 mm 163 W/m2
09:32 11.9 °C 7.0 °C 1021.9 hPa NW 5.0 km/h 11.1 km/h 72% 0.0 mm 164 W/m2
09:37 12.1 °C 7.0 °C 1022.2 hPa Calm   11.1 km/h 71% 0.0 mm 141 W/m2
09:42 12.6 °C 7.3 °C 1022.2 hPa NNW 2.6 km/h 9.7 km/h 70% 0.0 mm 106 W/m2
09:47 13.5 °C 7.5 °C 1022.2 hPa NNW 5.0 km/h 8.7 km/h 67% 0.0 mm 144 W/m2
09:52 13.8 °C 7.3 °C 1022.2 hPa NNW 3.5 km/h 11.1 km/h 65% 0.0 mm 191 W/m2
09:57 13.4 °C 6.5 °C 1022.2 hPa North 3.5 km/h 13.4 km/h 63% 0.0 mm 238 W/m2
10:02 13.6 °C 6.9 °C 1022.2 hPa North 3.5 km/h 13.4 km/h 64% 0.0 mm 240 W/m2
10:07 13.6 °C 6.7 °C 1022.2 hPa NNW 2.6 km/h 11.1 km/h 63% 0.0 mm 249 W/m2
10:12 13.8 °C 7.3 °C 1022.2 hPa NW 1.1 km/h 9.7 km/h 65% 0.0 mm 239 W/m2
10:17 14.7 °C 7.7 °C 1022.2 hPa NNW 3.5 km/h 11.1 km/h 63% 0.0 mm 212 W/m2
10:22 15.2 °C 7.5 °C 1022.2 hPa Calm   11.1 km/h 60% 0.0 mm 276 W/m2
10:27 15.3 °C 7.1 °C 1022.2 hPa Calm   8.7 km/h 58% 0.0 mm 210 W/m2
10:32 14.7 °C 6.8 °C 1022.2 hPa Calm   8.7 km/h 59% 0.0 mm 264 W/m2
10:37 14.7 °C 7.0 °C 1022.2 hPa Calm   8.7 km/h 60% 0.0 mm 273 W/m2
10:42 14.7 °C 6.8 °C 1022.6 hPa Calm   6.1 km/h 59% 0.0 mm 283 W/m2
10:47 14.9 °C 7.4 °C 1022.2 hPa WSW 6.1 km/h 11.1 km/h 61% 0.0 mm 216 W/m2
10:52 14.4 °C 6.2 °C 1022.2 hPa WSW 1.1 km/h 12.2 km/h 58% 0.0 mm 195 W/m2
10:57 14.3 °C 6.7 °C 1022.6 hPa Calm   12.2 km/h 60% 0.0 mm 221 W/m2
11:02 14.5 °C 7.1 °C 1022.6 hPa Calm   6.1 km/h 61% 0.0 mm 398 W/m2
11:07 14.9 °C 6.9 °C 1022.2 hPa West 6.1 km/h 9.7 km/h 59% 0.0 mm 323 W/m2
11:12 14.7 °C 6.3 °C 1022.6 hPa SW 3.5 km/h 9.7 km/h 57% 0.0 mm 268 W/m2
11:17 14.4 °C 6.2 °C 1022.6 hPa Calm   9.7 km/h 58% 0.0 mm 232 W/m2
11:22 14.1 °C 6.2 °C 1022.6 hPa Calm   8.7 km/h 59% 0.0 mm 230 W/m2
11:27 14.0 °C 5.9 °C 1022.2 hPa SW 6.1 km/h 11.1 km/h 58% 0.0 mm 290 W/m2
11:32 14.1 °C 5.9 °C 1022.2 hPa Calm   11.1 km/h 58% 0.0 mm 301 W/m2
11:37 14.7 °C 6.5 °C 1022.2 hPa Calm   11.1 km/h 58% 0.0 mm 264 W/m2
11:42 14.8 °C 6.4 °C 1022.2 hPa Calm   6.1 km/h 57% 0.0 mm 317 W/m2
11:47 15.1 °C 6.1 °C 1022.2 hPa SW 3.5 km/h 9.7 km/h 55% 0.0 mm 303 W/m2
11:52 15.0 °C 6.1 °C 1022.2 hPa SW 6.1 km/h 12.2 km/h 55% 0.0 mm 296 W/m2
11:57 15.0 °C 6.1 °C 1022.2 hPa SW 6.1 km/h 12.2 km/h 55% 0.0 mm 348 W/m2
12:02 15.3 °C 6.6 °C 1022.2 hPa SW 1.1 km/h 9.7 km/h 56% 0.0 mm 357 W/m2
12:07 15.0 °C 5.8 °C 1022.2 hPa SW 1.1 km/h 12.2 km/h 54% 0.0 mm 285 W/m2
12:12 15.0 °C 6.1 °C 1022.2 hPa SW 5.0 km/h 13.4 km/h 55% 0.0 mm 414 W/m2
12:17 15.0 °C 6.1 °C 1021.9 hPa SW 9.7 km/h 13.4 km/h 55% 0.0 mm 330 W/m2
12:22 15.4 °C 6.4 °C 1021.9 hPa SW 7.2 km/h 15.8 km/h 55% 0.0 mm 313 W/m2
12:27 15.1 °C 5.9 °C 1021.6 hPa Calm   15.8 km/h 54% 0.0 mm 355 W/m2
12:32 15.1 °C 5.9 °C 1021.9 hPa Calm   11.1 km/h 54% 0.0 mm 272 W/m2
12:37 15.1 °C 6.4 °C 1021.6 hPa SW 1.1 km/h 9.7 km/h 56% 0.0 mm 345 W/m2
12:42 15.4 °C 6.4 °C 1021.9 hPa SW 1.1 km/h 11.1 km/h 55% 0.0 mm 311 W/m2
12:47 15.4 °C 6.2 °C 1021.9 hPa SW 1.1 km/h 11.1 km/h 54% 0.0 mm 299 W/m2
12:52 15.5 °C 5.9 °C 1021.9 hPa SW 6.1 km/h 12.2 km/h 53% 0.0 mm 339 W/m2
12:57 15.3 °C 6.1 °C 1021.9 hPa SW 1.1 km/h 12.2 km/h 54% 0.0 mm 331 W/m2
13:02 15.6 °C 6.3 °C 1021.6 hPa SSW 5.0 km/h 12.2 km/h 54% 0.0 mm 310 W/m2
13:07 15.4 °C 5.9 °C 1021.6 hPa Calm   9.7 km/h 53% 0.0 mm 293 W/m2
13:12 15.6 °C 6.3 °C 1021.6 hPa Calm   9.7 km/h 54% 0.0 mm 463 W/m2
13:17 16.5 °C 6.9 °C 1021.6 hPa Calm   1.1 km/h 53% 0.0 mm 370 W/m2
13:22 16.6 °C 6.7 °C 1021.6 hPa South 1.1 km/h 6.1 km/h 52% 0.0 mm 318 W/m2
13:27 16.5 °C 6.3 °C 1021.6 hPa Calm   6.1 km/h 51% 0.0 mm 275 W/m2
13:32 16.4 °C 6.2 °C 1021.6 hPa Calm   3.5 km/h 51% 0.0 mm 309 W/m2
13:37 16.9 °C 6.1 °C 1021.6 hPa Calm   1.1 km/h 49% 0.0 mm 284 W/m2
13:42 17.3 °C 6.2 °C 1021.6 hPa Calm     48% 0.0 mm 256 W/m2
13:47 18.2 °C 6.7 °C 1021.6 hPa Calm     47% 0.0 mm 199 W/m2
13:52 17.8 °C 6.1 °C 1021.6 hPa Calm     46% 0.0 mm 149 W/m2
13:57 18.0 °C 6.2 °C 1021.6 hPa Calm     46% 0.0 mm 93 W/m2
14:02 18.7 °C 6.8 °C 1021.2 hPa Calm     46% 0.0 mm 68 W/m2
14:07 19.0 °C 6.8 °C 1021.2 hPa Calm     45% 0.0 mm 65 W/m2
14:12 18.5 °C 6.7 °C 1021.6 hPa Calm     46% 0.0 mm 64 W/m2
14:17 18.4 °C 6.9 °C 1021.6 hPa Calm     47% 0.0 mm 64 W/m2
14:22 18.5 °C 7.0 °C 1021.2 hPa Calm     47% 0.0 mm 66 W/m2
14:27 19.0 °C 6.8 °C 1021.2 hPa Calm     45% 0.0 mm 66 W/m2
14:32 19.4 °C 7.2 °C 1021.2 hPa Calm     45% 0.0 mm 67 W/m2
14:37 18.8 °C 6.9 °C 1021.6 hPa Calm     46% 0.0 mm 67 W/m2
14:42 18.6 °C 6.8 °C 1021.2 hPa Calm     46% 0.0 mm 67 W/m2
14:47 18.5 °C 7.3 °C 1021.2 hPa Calm     48% 0.0 mm 66 W/m2
14:52 18.6 °C 7.1 °C 1021.2 hPa Calm     47% 0.0 mm 65 W/m2
15:12 17.7 °C 7.2 °C 1021.2 hPa Calm   1.1 km/h 50% 0.0 mm 134 W/m2
15:17 17.4 °C 7.2 °C 1021.2 hPa Calm     51% 0.0 mm 177 W/m2
15:22 16.9 °C 7.3 °C 1020.9 hPa Calm   2.6 km/h 53% 0.0 mm 171 W/m2
15:27 17.7 °C 7.7 °C 1021.2 hPa Calm   2.6 km/h 52% 0.0 mm 162 W/m2
15:32 17.7 °C 7.7 °C 1021.2 hPa Calm     52% 0.0 mm 153 W/m2
15:37 17.4 °C 7.7 °C 1021.2 hPa Calm     53% 0.0 mm 143 W/m2
15:42 17.6 °C 7.9 °C 1020.9 hPa Calm     53% 0.0 mm 131 W/m2
15:47 17.1 °C 7.7 °C 1021.2 hPa Calm     54% 0.0 mm 119 W/m2
15:52 17.1 °C 8.0 °C 1020.9 hPa Calm     55% 0.0 mm 106 W/m2
15:57 16.8 °C 7.7 °C 1021.2 hPa Calm     55% 0.0 mm 92 W/m2
16:02 17.0 °C 7.9 °C 1020.9 hPa Calm     55% 0.0 mm 79 W/m2
16:07 17.3 °C 7.9 °C 1021.2 hPa Calm     54% 0.0 mm 62 W/m2
16:12 17.0 °C 7.6 °C 1020.9 hPa Calm   1.1 km/h 54% 0.0 mm 55 W/m2
16:17 17.0 °C 7.9 °C 1020.9 hPa Calm   1.1 km/h 55% 0.0 mm 56 W/m2
16:22 17.3 °C 8.2 °C 1020.9 hPa Calm     55% 0.0 mm 57 W/m2
16:27 17.3 °C 8.2 °C 1020.9 hPa Calm     55% 0.0 mm 54 W/m2
16:32 17.5 °C 8.4 °C 1021.2 hPa Calm     55% 0.0 mm 53 W/m2
16:37 17.3 °C 8.2 °C 1020.9 hPa Calm     55% 0.0 mm 51 W/m2
16:42 17.0 °C 8.2 °C 1021.2 hPa Calm     56% 0.0 mm 48 W/m2
16:47 16.8 °C 8.5 °C 1021.2 hPa Calm     58% 0.0 mm 42 W/m2
16:52 16.5 °C 8.4 °C 1020.9 hPa Calm     59% 0.0 mm 34 W/m2
16:57 16.3 °C 8.5 °C 1021.2 hPa Calm     60% 0.0 mm 26 W/m2
17:02 16.2 °C 8.9 °C 1020.9 hPa Calm     62% 0.0 mm 20 W/m2
17:07 15.8 °C 8.8 °C 1020.9 hPa Calm     63% 0.0 mm 12 W/m2
17:12 15.1 °C 8.3 °C 1020.9 hPa Calm     64% 0.0 mm 8 W/m2
17:17 14.2 °C 8.2 °C 1020.9 hPa Calm     67% 0.0 mm 5 W/m2
17:22 13.4 °C 8.3 °C 1021.2 hPa Calm     71% 0.0 mm 2 W/m2
17:27 13.0 °C 8.3 °C 1020.9 hPa Calm     73% 0.0 mm 0 W/m2
17:32 12.7 °C 8.2 °C 1021.2 hPa Calm     74% 0.0 mm 0 W/m2
17:37 12.4 °C 8.3 °C 1021.2 hPa Calm     76% 0.0 mm 0 W/m2
17:42 12.1 °C 8.4 °C 1021.2 hPa Calm     78% 0.0 mm 0 W/m2
17:47 12.0 °C 8.7 °C 1021.2 hPa Calm     80% 0.0 mm 0 W/m2
17:52 11.8 °C 8.8 °C 1020.9 hPa Calm     82% 0.0 mm 0 W/m2
17:57 11.7 °C 8.9 °C 1021.2 hPa Calm     83% 0.0 mm 0 W/m2
18:02 11.5 °C 8.7 °C 1021.2 hPa Calm     83% 0.0 mm 0 W/m2
18:07 11.3 °C 8.5 °C 1021.2 hPa Calm     83% 0.0 mm 0 W/m2
18:12 11.2 °C 8.4 °C 1021.2 hPa Calm     83% 0.0 mm 0 W/m2
18:17 11.0 °C 8.4 °C 1021.2 hPa Calm     84% 0.0 mm 0 W/m2
18:22 10.9 °C 8.7 °C 1021.2 hPa Calm     86% 0.0 mm 0 W/m2
18:27 10.7 °C 8.4 °C 1021.2 hPa Calm     86% 0.0 mm 0 W/m2
18:32 10.6 °C 8.6 °C 1021.2 hPa Calm     87% 0.0 mm 0 W/m2
18:37 10.5 °C 8.6 °C 1021.6 hPa Calm     88% 0.0 mm 0 W/m2
18:42 10.3 °C 8.6 °C 1021.2 hPa Calm     89% 0.0 mm 0 W/m2
18:47 10.3 °C 8.7 °C 1021.6 hPa Calm     90% 0.0 mm 0 W/m2
18:52 10.1 °C 8.6 °C 1021.6 hPa Calm     90% 0.0 mm 0 W/m2
18:57 10.0 °C 8.4 °C 1021.2 hPa Calm     90% 0.0 mm 0 W/m2
19:02 9.8 °C 8.6 °C 1021.2 hPa Calm     92% 0.0 mm 0 W/m2
19:07 9.7 °C 8.4 °C 1021.6 hPa Calm     92% 0.0 mm 0 W/m2
19:12 9.6 °C 8.5 °C 1021.2 hPa Calm     93% 0.0 mm 0 W/m2
19:17 9.5 °C 8.4 °C 1021.6 hPa Calm     93% 0.0 mm 0 W/m2
19:22 9.2 °C 8.3 °C 1021.2 hPa Calm     94% 0.0 mm 0 W/m2
19:27 9.1 °C 8.2 °C 1021.6 hPa Calm     94% 0.0 mm 0 W/m2
19:32 9.0 °C 8.1 °C 1021.6 hPa Calm     94% 0.0 mm 0 W/m2
19:37 8.9 °C 8.2 °C 1021.6 hPa Calm     95% 0.0 mm 0 W/m2
19:42 8.9 °C 8.2 °C 1021.6 hPa Calm     95% 0.0 mm 0 W/m2
19:47 8.8 °C 8.2 °C 1021.6 hPa Calm     96% 0.0 mm 0 W/m2
19:52 8.9 °C 8.3 °C 1021.2 hPa Calm     96% 0.0 mm 0 W/m2
19:57 9.0 °C 8.2 °C 1021.2 hPa Calm     95% 0.0 mm 0 W/m2
20:02 9.0 °C 8.4 °C 1021.2 hPa Calm     96% 0.0 mm 0 W/m2
20:07 9.1 °C 8.5 °C 1021.6 hPa NNW 5.0 km/h 8.7 km/h 96% 0.0 mm 0 W/m2
20:12 9.1 °C 8.5 °C 1021.2 hPa NNW 5.0 km/h 8.7 km/h 96% 0.0 mm 0 W/m2
20:17 9.1 °C 8.5 °C 1021.2 hPa NW 5.0 km/h 8.7 km/h 96% 0.0 mm 0 W/m2
20:22 9.1 °C 8.3 °C 1021.2 hPa NW 3.5 km/h 8.7 km/h 95% 0.0 mm 0 W/m2
20:27 9.1 °C 8.3 °C 1021.2 hPa NW 3.5 km/h 8.7 km/h 95% 0.0 mm 0 W/m2
20:32 9.1 °C 8.3 °C 1021.2 hPa NW 3.5 km/h 8.7 km/h 95% 0.0 mm 0 W/m2
20:37 9.1 °C 8.3 °C 1021.2 hPa NW 5.0 km/h 8.7 km/h 95% 0.0 mm 0 W/m2
20:42 9.0 °C 8.2 °C 1021.2 hPa NW 3.5 km/h 8.7 km/h 95% 0.0 mm 0 W/m2
20:47 9.0 °C 8.2 °C 1021.2 hPa NW 3.5 km/h 8.7 km/h 95% 0.0 mm 0 W/m2
20:52 9.0 °C 8.2 °C 1021.2 hPa Calm   7.2 km/h 95% 0.0 mm 0 W/m2
20:57 8.9 °C 8.3 °C 1021.2 hPa NW 1.1 km/h 7.2 km/h 96% 0.0 mm 0 W/m2
21:02 8.9 °C 8.2 °C 1021.6 hPa Calm   6.1 km/h 95% 0.0 mm 0 W/m2
21:07 8.8 °C 8.1 °C 1021.2 hPa NNW 1.1 km/h 6.1 km/h 95% 0.0 mm 0 W/m2
21:12 8.7 °C 7.9 °C 1021.2 hPa Calm   6.1 km/h 95% 0.0 mm 0 W/m2
21:17 8.6 °C 7.8 °C 1021.2 hPa Calm   3.5 km/h 95% 0.0 mm 0 W/m2
21:22 8.5 °C 7.7 °C 1021.2 hPa Calm     95% 0.0 mm 0 W/m2
21:27 8.4 °C 7.7 °C 1021.2 hPa Calm     95% 0.0 mm 0 W/m2
21:32 8.3 °C 7.7 °C 1021.2 hPa Calm   3.5 km/h 96% 0.0 mm 0 W/m2
21:37 8.2 °C 7.6 °C 1021.2 hPa Calm   3.5 km/h 96% 0.0 mm 0 W/m2
21:42 8.1 °C 7.5 °C 1021.2 hPa Calm     96% 0.0 mm 0 W/m2
21:47 8.0 °C 7.4 °C 1021.2 hPa Calm   5.0 km/h 96% 0.0 mm 0 W/m2
21:52 8.0 °C 7.4 °C 1021.2 hPa NNW 1.1 km/h 7.2 km/h 96% 0.0 mm 0 W/m2
21:57 8.0 °C 7.4 °C 1021.2 hPa NNW 6.1 km/h 7.2 km/h 96% 0.0 mm 0 W/m2
22:02 8.1 °C 7.7 °C 1020.9 hPa NNW 3.5 km/h 8.7 km/h 97% 0.0 mm 0 W/m2
22:07 8.1 °C 7.7 °C 1020.9 hPa NNW 3.5 km/h 8.7 km/h 97% 0.0 mm 0 W/m2
22:12 8.1 °C 7.7 °C 1020.9 hPa NNW 2.6 km/h 8.7 km/h 97% 0.0 mm 0 W/m2
22:17 8.1 °C 7.7 °C 1020.9 hPa NNW 3.5 km/h 8.7 km/h 97% 0.0 mm 0 W/m2
22:22 7.9 °C 7.4 °C 1020.9 hPa Calm   8.7 km/h 97% 0.0 mm 0 W/m2
22:28 7.9 °C 7.4 °C 1020.9 hPa Calm   6.1 km/h 97% 0.0 mm 0 W/m2
22:33 7.9 °C 7.4 °C 1020.9 hPa NNW 1.1 km/h 7.2 km/h 97% 0.0 mm 0 W/m2
22:38 7.8 °C 7.3 °C 1020.9 hPa North 1.1 km/h 8.7 km/h 97% 0.0 mm 0 W/m2
22:43 7.8 °C 7.3 °C 1020.9 hPa North 3.5 km/h 8.7 km/h 97% 0.0 mm 0 W/m2
22:48 7.7 °C 7.3 °C 1020.9 hPa NNW 2.6 km/h 7.2 km/h 97% 0.0 mm 0 W/m2
22:53 7.7 °C 7.3 °C 1020.9 hPa NNW 2.6 km/h 6.1 km/h 97% 0.0 mm 0 W/m2
22:58 7.6 °C 7.2 °C 1020.9 hPa NNW 5.0 km/h 7.2 km/h 97% 0.0 mm 0 W/m2
23:03 7.6 °C 7.2 °C 1020.9 hPa Calm   7.2 km/h 97% 0.0 mm 0 W/m2
23:08 7.5 °C 7.1 °C 1020.9 hPa Calm   7.2 km/h 97% 0.0 mm 0 W/m2
23:13 7.5 °C 7.1 °C 1020.9 hPa North 1.1 km/h 6.1 km/h 97% 0.0 mm 0 W/m2
23:18 7.4 °C 6.9 °C 1020.9 hPa Calm   5.0 km/h 97% 0.0 mm 0 W/m2
23:23 7.3 °C 6.8 °C 1020.9 hPa Calm   5.0 km/h 97% 0.0 mm 0 W/m2
23:28 7.3 °C 6.8 °C 1020.9 hPa Calm   5.0 km/h 97% 0.0 mm 0 W/m2
23:33 7.2 °C 6.8 °C 1020.9 hPa Calm   5.0 km/h 97% 0.0 mm 0 W/m2
23:38 7.2 °C 6.8 °C 1020.9 hPa NNW 2.6 km/h 7.2 km/h 97% 0.0 mm 0 W/m2
23:43 7.2 °C 6.8 °C 1020.9 hPa NW 3.5 km/h 7.2 km/h 97% 0.0 mm 0 W/m2
23:48 7.2 °C 6.8 °C 1020.5 hPa NW 3.5 km/h 8.7 km/h 97% 0.0 mm 0 W/m2
23:53 7.1 °C 6.7 °C 1020.9 hPa NNW 2.6 km/h 8.7 km/h 97% 0.0 mm 0 W/m2
23:58 7.1 °C 6.7 °C 1020.9 hPa NNW 1.1 km/h 6.1 km/h 97% 0.0 mm 0 W/m2
Northern Hawkes Bay. New Zealand Historic Data
Compliments of Weather Underground - 2 mb